Time,TemperatureF,DewpointF,PressureIn,WindDirection,WindDirectionDegrees,WindSpeedMPH,WindSpeedGustMPH,Humidity,HourlyPrecipIn,Conditions,Clouds,dailyrainin,SoftwareType,DateUTC
2013-08-29 00:03:00,79.0,50.5,29.79,SW,225,9.0,12.0,37,0.00,,CLR,0.00,VWS V14.01,2013-08-29 06:03:00,
2013-08-29 00:08:00,78.0,51.1,29.79,SW,225,10.0,14.0,39,0.00,,CLR,0.00,VWS V14.01,2013-08-29 06:08:00,
2013-08-29 00:13:00,78.0,49.7,29.80,SW,225,13.0,14.0,37,0.00,,CLR,0.00,VWS V14.01,2013-08-29 06:13:00,
2013-08-29 00:18:00,79.0,49.8,29.80,SW,225,10.0,14.0,36,0.00,,CLR,0.00,VWS V14.01,2013-08-29 06:18:00,
2013-08-29 00:23:00,78.0,49.7,29.79,SW,225,10.0,14.0,37,0.00,,CLR,0.00,VWS V14.01,2013-08-29 06:23:00,
2013-08-29 00:28:00,78.0,49.7,29.79,SW,225,11.0,14.0,37,0.00,,CLR,0.00,VWS V14.01,2013-08-29 06:28:00,
2013-08-29 00:33:00,77.0,50.2,29.81,SW,225,9.0,12.0,39,0.00,,CLR,0.00,VWS V14.01,2013-08-29 06:33:00,
2013-08-29 00:38:00,77.0,50.2,29.81,SW,225,9.0,12.0,39,0.00,,CLR,0.00,VWS V14.01,2013-08-29 06:38:00,
2013-08-29 00:43:00,76.0,49.3,29.81,SW,225,10.0,12.0,39,0.00,,CLR,0.00,VWS V14.01,2013-08-29 06:43:00,
2013-08-29 00:48:00,76.0,49.3,29.81,SW,225,10.0,12.0,39,0.00,,CLR,0.00,VWS V14.01,2013-08-29 06:48:00,
2013-08-29 00:53:00,76.0,49.3,29.83,SSW,202,12.0,20.0,39,0.00,,CLR,0.00,VWS V14.01,2013-08-29 06:53:00,
2013-08-29 00:58:00,76.0,50.0,29.83,SSE,157,12.0,20.0,40,0.00,,CLR,0.00,VWS V14.01,2013-08-29 06:58:00,
2013-08-29 01:03:00,76.0,50.0,29.83,South,180,14.0,19.0,40,0.00,,CLR,0.00,VWS V14.01,2013-08-29 07:03:00,
2013-08-29 01:08:00,77.0,50.2,29.83,South,180,17.0,19.0,39,0.00,,CLR,0.00,VWS V14.01,2013-08-29 07:08:00,
2013-08-29 01:13:00,77.0,49.5,29.83,South,180,16.0,20.0,38,0.00,,CLR,0.00,VWS V14.01,2013-08-29 07:13:00,
2013-08-29 01:18:00,78.0,49.7,29.83,SSW,202,13.0,20.0,37,0.00,,CLR,0.00,VWS V14.01,2013-08-29 07:18:00,
2013-08-29 01:23:00,78.0,49.7,29.82,SSW,202,15.0,20.0,37,0.00,,CLR,0.00,VWS V14.01,2013-08-29 07:23:00,
2013-08-29 01:28:00,78.0,49.7,29.82,SSW,202,13.0,20.0,37,0.00,,CLR,0.00,VWS V14.01,2013-08-29 07:28:00,
2013-08-29 01:34:00,78.0,50.4,29.82,South,180,12.0,16.0,38,0.00,,CLR,0.00,VWS V14.01,2013-08-29 07:34:00,
2013-08-29 01:39:00,77.0,50.2,29.82,South,180,12.0,16.0,39,0.00,,CLR,0.00,VWS V14.01,2013-08-29 07:39:00,
2013-08-29 01:44:00,77.0,50.9,29.82,SSW,202,10.0,16.0,40,0.00,,CLR,0.00,VWS V14.01,2013-08-29 07:44:00,
2013-08-29 01:49:00,76.0,50.6,29.82,South,180,10.0,16.0,41,0.00,,CLR,0.00,VWS V14.01,2013-08-29 07:49:00,
2013-08-29 01:54:00,76.0,51.9,29.83,South,180,10.0,16.0,43,0.00,,CLR,0.00,VWS V14.01,2013-08-29 07:54:00,
2013-08-29 01:59:00,75.0,51.0,29.83,South,180,13.0,16.0,43,0.00,,CLR,0.00,VWS V14.01,2013-08-29 07:59:00,
2013-08-29 02:04:00,75.0,51.0,29.84,South,180,12.0,16.0,43,0.00,,CLR,0.00,VWS V14.01,2013-08-29 08:04:00,
2013-08-29 02:09:00,75.0,52.2,29.84,South,180,11.0,16.0,45,0.00,,CLR,0.00,VWS V14.01,2013-08-29 08:09:00,
2013-08-29 02:14:00,74.0,51.3,29.84,South,180,12.0,16.0,45,0.00,,CLR,0.00,VWS V14.01,2013-08-29 08:14:00,
2013-08-29 02:19:00,74.0,51.9,29.84,South,180,11.0,16.0,46,0.00,,CLR,0.00,VWS V14.01,2013-08-29 08:19:00,
2013-08-29 02:24:00,74.0,52.5,29.84,South,180,12.0,16.0,47,0.00,,CLR,0.00,VWS V14.01,2013-08-29 08:24:00,
2013-08-29 02:29:00,73.0,51.0,29.84,South,180,12.0,16.0,46,0.00,,CLR,0.00,VWS V14.01,2013-08-29 08:29:00,
2013-08-29 02:34:00,74.0,51.9,29.84,South,180,12.0,15.0,46,0.00,,CLR,0.00,VWS V14.01,2013-08-29 08:34:00,
2013-08-29 02:39:00,74.0,51.9,29.84,South,180,10.0,15.0,46,0.00,,CLR,0.00,VWS V14.01,2013-08-29 08:39:00,
2013-08-29 02:44:00,73.0,51.0,29.84,SSW,202,12.0,15.0,46,0.00,,CLR,0.00,VWS V14.01,2013-08-29 08:44:00,
2013-08-29 02:49:00,73.0,51.0,29.84,SSW,202,13.0,15.0,46,0.00,,CLR,0.00,VWS V14.01,2013-08-29 08:49:00,
2013-08-29 02:54:00,73.0,51.0,29.85,SSW,202,12.0,15.0,46,0.00,,CLR,0.00,VWS V14.01,2013-08-29 08:54:00,
2013-08-29 02:59:00,73.0,51.6,29.85,SSW,202,10.0,15.0,47,0.00,,CLR,0.00,VWS V14.01,2013-08-29 08:59:00,
2013-08-29 03:04:00,72.0,50.7,29.85,SSW,202,10.0,12.0,47,0.00,,CLR,0.00,VWS V14.01,2013-08-29 09:04:00,
2013-08-29 03:09:00,72.0,50.7,29.85,SSW,202,10.0,12.0,47,0.00,,CLR,0.00,VWS V14.01,2013-08-29 09:09:00,
2013-08-29 03:15:00,72.0,50.1,29.85,SSW,202,9.0,12.0,46,0.00,,CLR,0.00,VWS V14.01,2013-08-29 09:15:00,
2013-08-29 03:20:00,72.0,50.7,29.85,SSW,202,9.0,12.0,47,0.00,,CLR,0.00,VWS V14.01,2013-08-29 09:20:00,
2013-08-29 03:25:00,72.0,50.7,29.85,SSW,202,10.0,12.0,47,0.00,,CLR,0.00,VWS V14.01,2013-08-29 09:25:00,
2013-08-29 03:30:00,72.0,51.3,29.85,SSW,202,12.0,12.0,48,0.00,,CLR,0.00,VWS V14.01,2013-08-29 09:30:00,
2013-08-29 03:35:00,72.0,50.1,29.85,SSW,202,9.0,13.0,46,0.00,,CLR,0.00,VWS V14.01,2013-08-29 09:35:00,
2013-08-29 03:40:00,73.0,51.0,29.85,SSW,202,12.0,13.0,46,0.00,,CLR,0.00,VWS V14.01,2013-08-29 09:40:00,
2013-08-29 03:45:00,74.0,50.1,29.84,SSW,202,13.0,14.0,43,0.00,,CLR,0.00,VWS V14.01,2013-08-29 09:45:00,
2013-08-29 03:50:00,74.0,50.1,29.84,SSW,202,11.0,14.0,43,0.00,,CLR,0.00,VWS V14.01,2013-08-29 09:50:00,
2013-08-29 03:55:00,74.0,50.1,29.83,SSW,202,11.0,14.0,43,0.00,,CLR,0.00,VWS V14.01,2013-08-29 09:55:00,
2013-08-29 04:00:00,75.0,49.7,29.83,SSW,202,13.0,15.0,41,0.00,,CLR,0.00,VWS V14.01,2013-08-29 10:00:00,
2013-08-29 04:05:00,76.0,50.6,29.83,South,180,13.0,16.0,41,0.00,,CLR,0.00,VWS V14.01,2013-08-29 10:05:00,
2013-08-29 04:10:00,76.0,50.6,29.83,SSW,202,13.0,16.0,41,0.00,,CLR,0.00,VWS V14.01,2013-08-29 10:10:00,
2013-08-29 04:15:00,76.0,50.0,29.82,South,180,15.0,17.0,40,0.00,,CLR,0.00,VWS V14.01,2013-08-29 10:15:00,
2013-08-29 04:20:00,76.0,50.0,29.82,South,180,13.0,17.0,40,0.00,,CLR,0.00,VWS V14.01,2013-08-29 10:20:00,
2013-08-29 04:25:00,76.0,49.3,29.81,South,180,15.0,17.0,39,0.00,,CLR,0.00,VWS V14.01,2013-08-29 10:25:00,
2013-08-29 04:30:00,76.0,49.3,29.81,South,180,15.0,16.0,39,0.00,,CLR,0.00,VWS V14.01,2013-08-29 10:30:00,
2013-08-29 04:35:00,76.0,49.3,29.81,South,180,13.0,16.0,39,0.00,,CLR,0.00,VWS V14.01,2013-08-29 10:35:00,
2013-08-29 04:40:00,76.0,50.6,29.81,South,180,14.0,16.0,41,0.00,,CLR,0.00,VWS V14.01,2013-08-29 10:40:00,
2013-08-29 04:45:00,75.0,49.7,29.81,South,180,12.0,16.0,41,0.00,,CLR,0.00,VWS V14.01,2013-08-29 10:45:00,
2013-08-29 04:50:00,75.0,49.7,29.81,South,180,12.0,16.0,41,0.00,,CLR,0.00,VWS V14.01,2013-08-29 10:50:00,
2013-08-29 04:55:00,75.0,50.4,29.82,South,180,13.0,16.0,42,0.00,,CLR,0.00,VWS V14.01,2013-08-29 10:55:00,
2013-08-29 05:00:00,74.0,50.1,29.82,SSW,202,11.0,12.0,43,0.00,,CLR,0.00,VWS V14.01,2013-08-29 11:00:00,
2013-08-29 05:05:00,73.0,49.8,29.83,South,180,12.0,13.0,44,0.00,,CLR,0.00,VWS V14.01,2013-08-29 11:05:00,
2013-08-29 05:11:00,73.0,50.4,29.83,South,180,10.0,13.0,45,0.00,,CLR,0.00,VWS V14.01,2013-08-29 11:11:00,
2013-08-29 05:16:00,73.0,50.4,29.84,South,180,12.0,13.0,45,0.00,,CLR,0.00,VWS V14.01,2013-08-29 11:16:00,
2013-08-29 05:21:00,73.0,50.4,29.84,South,180,11.0,13.0,45,0.00,,CLR,0.00,VWS V14.01,2013-08-29 11:21:00,
2013-08-29 05:26:00,73.0,51.0,29.84,SW,225,6.0,13.0,46,0.00,,CLR,0.00,VWS V14.01,2013-08-29 11:26:00,
2013-08-29 05:31:00,72.0,50.1,29.84,NW,315,4.0,5.0,46,0.00,,CLR,0.00,VWS V14.01,2013-08-29 11:31:00,
2013-08-29 05:36:00,71.0,48.6,29.86,North,360,3.0,12.0,45,0.00,,CLR,0.00,VWS V14.01,2013-08-29 11:36:00,
2013-08-29 05:41:00,74.0,47.5,29.86,WSW,247,5.0,12.0,39,0.00,,CLR,0.00,VWS V14.01,2013-08-29 11:41:00,
2013-08-29 05:46:00,76.0,47.2,29.85,NW,315,9.0,12.0,36,0.00,,CLR,0.00,VWS V14.01,2013-08-29 11:46:00,
2013-08-29 05:51:00,76.0,47.9,29.85,WNW,292,7.0,12.0,37,0.00,,CLR,0.00,VWS V14.01,2013-08-29 11:51:00,
2013-08-29 05:56:00,75.0,47.7,29.83,NW,315,9.0,12.0,38,0.00,,CLR,0.00,VWS V14.01,2013-08-29 11:56:00,
2013-08-29 06:01:00,74.0,47.5,29.83,NW,315,6.0,6.0,39,0.00,,CLR,0.00,VWS V14.01,2013-08-29 12:01:00,
2013-08-29 06:06:00,73.0,47.3,29.85,NW,315,10.0,11.0,40,0.00,,CLR,0.00,VWS V14.01,2013-08-29 12:06:00,
2013-08-29 06:11:00,73.0,47.9,29.85,NW,315,10.0,12.0,41,0.00,,CLR,0.00,VWS V14.01,2013-08-29 12:11:00,
2013-08-29 06:16:00,73.0,47.9,29.86,NW,315,10.0,12.0,41,0.00,,CLR,0.00,VWS V14.01,2013-08-29 12:16:00,
2013-08-29 06:21:00,75.0,51.0,29.86,NW,315,16.0,20.0,43,0.00,,CLR,0.00,VWS V14.01,2013-08-29 12:21:00,
2013-08-29 06:26:00,76.0,51.9,29.85,NW,315,18.0,20.0,43,0.00,,CLR,0.00,VWS V14.01,2013-08-29 12:26:00,
2013-08-29 06:31:00,77.0,52.8,29.84,NW,315,16.0,19.0,43,0.00,,CLR,0.00,VWS V14.01,2013-08-29 12:31:00,
2013-08-29 06:36:00,76.0,51.3,29.84,NW,315,15.0,22.0,42,0.00,,CLR,0.00,VWS V14.01,2013-08-29 12:36:00,
2013-08-29 06:41:00,76.0,51.9,29.85,NW,315,15.0,22.0,43,0.00,,CLR,0.00,VWS V14.01,2013-08-29 12:41:00,
2013-08-29 06:46:00,76.0,53.2,29.85,NW,315,15.0,22.0,45,0.00,,CLR,0.00,VWS V14.01,2013-08-29 12:46:00,
2013-08-29 06:51:00,76.0,53.8,29.85,NW,315,11.0,22.0,46,0.00,,CLR,0.00,VWS V14.01,2013-08-29 12:51:00,
2013-08-29 06:56:00,76.0,54.3,29.85,NW,315,13.0,22.0,47,0.00,,CLR,0.00,VWS V14.01,2013-08-29 12:56:00,
2013-08-29 07:02:00,76.0,54.9,29.86,NW,315,11.0,13.0,48,0.00,,CLR,0.00,VWS V14.01,2013-08-29 13:02:00,
2013-08-29 07:07:00,76.0,54.9,29.86,NW,315,11.0,13.0,48,0.00,,CLR,0.00,VWS V14.01,2013-08-29 13:07:00,
2013-08-29 07:12:00,76.0,54.9,29.86,NW,315,10.0,16.0,48,0.00,,CLR,0.00,VWS V14.01,2013-08-29 13:12:00,
2013-08-29 07:17:00,76.0,55.5,29.86,NW,315,12.0,16.0,49,0.00,,CLR,0.00,VWS V14.01,2013-08-29 13:17:00,
2013-08-29 07:22:00,76.0,55.5,29.87,NW,315,11.0,16.0,49,0.00,,CLR,0.00,VWS V14.01,2013-08-29 13:22:00,
2013-08-29 07:27:00,75.0,54.6,29.87,NW,315,11.0,16.0,49,0.00,,CLR,0.00,VWS V14.01,2013-08-29 13:27:00,
2013-08-29 07:32:00,76.0,54.9,29.87,NW,315,11.0,13.0,48,0.00,,CLR,0.00,VWS V14.01,2013-08-29 13:32:00,
2013-08-29 07:37:00,77.0,55.8,29.87,NW,315,12.0,14.0,48,0.00,,CLR,0.00,VWS V14.01,2013-08-29 13:37:00,
2013-08-29 07:42:00,76.0,54.9,29.87,NW,315,10.0,14.0,48,0.00,,CLR,0.00,VWS V14.01,2013-08-29 13:42:00,
2013-08-29 07:47:00,77.0,55.8,29.87,NW,315,12.0,14.0,48,0.00,,CLR,0.00,VWS V14.01,2013-08-29 13:47:00,
2013-08-29 07:52:00,77.0,54.7,29.86,NW,315,10.0,14.0,46,0.00,,CLR,0.00,VWS V14.01,2013-08-29 13:52:00,
2013-08-29 07:57:00,78.0,55.6,29.86,NNW,337,11.0,14.0,46,0.00,,CLR,0.00,VWS V14.01,2013-08-29 13:57:00,
2013-08-29 08:02:00,79.0,54.6,29.85,NW,315,13.0,16.0,43,0.00,,CLR,0.00,VWS V14.01,2013-08-29 14:02:00,
2013-08-29 08:07:00,79.0,55.2,29.85,NW,315,11.0,16.0,44,0.00,,CLR,0.00,VWS V14.01,2013-08-29 14:07:00,
2013-08-29 08:12:00,80.0,55.5,29.85,NNW,337,13.0,16.0,43,0.00,,CLR,0.00,VWS V14.01,2013-08-29 14:12:00,
2013-08-29 08:17:00,80.0,55.5,29.85,NNW,337,9.0,16.0,43,0.00,,CLR,0.00,VWS V14.01,2013-08-29 14:17:00,
2013-08-29 08:22:00,81.0,55.8,29.84,NNW,337,11.0,16.0,42,0.00,,CLR,0.00,VWS V14.01,2013-08-29 14:22:00,
2013-08-29 08:27:00,82.0,56.7,29.84,NNW,337,11.0,17.0,42,0.00,,CLR,0.00,VWS V14.01,2013-08-29 14:27:00,
2013-08-29 08:32:00,82.0,55.3,29.84,North,360,12.0,15.0,40,0.00,,CLR,0.00,VWS V14.01,2013-08-29 14:32:00,
2013-08-29 08:37:00,82.0,55.3,29.84,North,360,13.0,15.0,40,0.00,,CLR,0.00,VWS V14.01,2013-08-29 14:37:00,
2013-08-29 08:42:00,83.0,56.2,29.84,North,360,10.0,16.0,40,0.00,,CLR,0.00,VWS V14.01,2013-08-29 14:42:00,
2013-08-29 08:47:00,83.0,55.5,29.84,NNW,337,15.0,16.0,39,0.00,,CLR,0.00,VWS V14.01,2013-08-29 14:47:00,
2013-08-29 08:53:00,83.0,54.8,29.84,NNW,337,13.0,16.0,38,0.00,,CLR,0.00,VWS V14.01,2013-08-29 14:53:00,
2013-08-29 08:58:00,83.0,56.2,29.84,NW,315,11.0,16.0,40,0.00,,CLR,0.00,VWS V14.01,2013-08-29 14:58:00,
2013-08-29 09:03:00,83.0,54.8,29.84,NW,315,12.0,16.0,38,0.00,,CLR,0.00,VWS V14.01,2013-08-29 15:03:00,
2013-08-29 09:08:00,84.0,57.1,29.84,NW,315,12.0,16.0,40,0.00,,CLR,0.00,VWS V14.01,2013-08-29 15:08:00,
2013-08-29 09:13:00,84.0,57.1,29.83,NW,315,14.0,17.0,40,0.00,,CLR,0.00,VWS V14.01,2013-08-29 15:13:00,
2013-08-29 09:18:00,84.0,57.8,29.83,NNW,337,21.0,23.0,41,0.00,,CLR,0.00,VWS V14.01,2013-08-29 15:18:00,
2013-08-29 09:23:00,83.0,56.9,29.83,NW,315,17.0,25.0,41,0.00,,CLR,0.00,VWS V14.01,2013-08-29 15:23:00,
2013-08-29 09:28:00,85.0,58.0,29.83,NNW,337,15.0,25.0,40,0.00,,CLR,0.00,VWS V14.01,2013-08-29 15:28:00,
2013-08-29 09:33:00,84.0,58.5,29.83,NNW,337,16.0,22.0,42,0.00,,CLR,0.00,VWS V14.01,2013-08-29 15:33:00,
2013-08-29 09:38:00,85.0,60.0,29.83,North,360,24.0,25.0,43,0.00,,CLR,0.00,VWS V14.01,2013-08-29 15:38:00,
2013-08-29 09:43:00,85.0,60.7,29.82,North,360,19.0,28.0,44,0.00,,CLR,0.00,VWS V14.01,2013-08-29 15:43:00,
2013-08-29 09:48:00,85.0,59.4,29.82,NNW,337,19.0,28.0,42,0.00,,CLR,0.00,VWS V14.01,2013-08-29 15:48:00,
2013-08-29 09:53:00,86.0,60.3,29.81,North,360,22.0,28.0,42,0.00,,CLR,0.00,VWS V14.01,2013-08-29 15:53:00,
2013-08-29 09:58:00,85.0,59.4,29.81,NNW,337,26.0,28.0,42,0.00,,CLR,0.00,VWS V14.01,2013-08-29 15:58:00,
2013-08-29 10:03:00,86.0,58.9,29.82,NNW,337,21.0,27.0,40,0.00,,CLR,0.00,VWS V14.01,2013-08-29 16:03:00,
2013-08-29 10:08:00,86.0,58.9,29.82,NW,315,18.0,27.0,40,0.00,,CLR,0.00,VWS V14.01,2013-08-29 16:08:00,
2013-08-29 10:13:00,86.0,59.6,29.83,NNW,337,13.0,27.0,41,0.00,,CLR,0.00,VWS V14.01,2013-08-29 16:13:00,
2013-08-29 10:18:00,86.0,58.9,29.83,NNW,337,19.0,27.0,40,0.00,,CLR,0.00,VWS V14.01,2013-08-29 16:18:00,
2013-08-29 10:23:00,86.0,58.2,29.83,NNW,337,20.0,28.0,39,0.00,,CLR,0.00,VWS V14.01,2013-08-29 16:23:00,
2013-08-29 10:28:00,85.0,57.3,29.83,NNW,337,20.0,28.0,39,0.00,,CLR,0.00,VWS V14.01,2013-08-29 16:28:00,
2013-08-29 10:33:00,86.0,58.2,29.82,NNW,337,20.0,27.0,39,0.00,,CLR,0.00,VWS V14.01,2013-08-29 16:33:00,
2013-08-29 10:38:00,85.0,58.0,29.82,NW,315,21.0,29.0,40,0.00,,CLR,0.00,VWS V14.01,2013-08-29 16:38:00,
2013-08-29 10:44:00,86.0,57.5,29.83,NNW,337,17.0,29.0,38,0.00,,CLR,0.00,VWS V14.01,2013-08-29 16:44:00,
2013-08-29 10:49:00,86.0,57.5,29.83,NNW,337,19.0,29.0,38,0.00,,CLR,0.00,VWS V14.01,2013-08-29 16:49:00,
2013-08-29 10:54:00,87.0,58.3,29.82,North,360,20.0,29.0,38,0.00,,CLR,0.00,VWS V14.01,2013-08-29 16:54:00,
2013-08-29 10:59:00,87.0,58.3,29.82,North,360,23.0,29.0,38,0.00,,CLR,0.00,VWS V14.01,2013-08-29 16:59:00,
2013-08-29 11:04:00,87.0,56.8,29.83,NNW,337,16.0,29.0,36,0.00,,CLR,0.00,VWS V14.01,2013-08-29 17:04:00,
2013-08-29 11:09:00,87.0,57.6,29.83,North,360,25.0,29.0,37,0.00,,CLR,0.00,VWS V14.01,2013-08-29 17:09:00,
2013-08-29 11:14:00,87.0,57.6,29.83,NNW,337,17.0,29.0,37,0.00,,CLR,0.00,VWS V14.01,2013-08-29 17:14:00,
2013-08-29 11:19:00,87.0,56.1,29.83,North,360,24.0,29.0,35,0.00,,CLR,0.00,VWS V14.01,2013-08-29 17:19:00,
2013-08-29 11:24:00,87.0,55.3,29.83,North,360,15.0,29.0,34,0.00,,CLR,0.00,VWS V14.01,2013-08-29 17:24:00,
2013-08-29 11:29:00,87.0,56.1,29.83,North,360,26.0,29.0,35,0.00,,CLR,0.00,VWS V14.01,2013-08-29 17:29:00,
2013-08-29 11:34:00,87.0,56.1,29.83,North,360,17.0,26.0,35,0.00,,CLR,0.00,VWS V14.01,2013-08-29 17:34:00,
2013-08-29 11:39:00,87.0,55.3,29.83,North,360,23.0,29.0,34,0.00,,CLR,0.00,VWS V14.01,2013-08-29 17:39:00,
2013-08-29 11:44:00,87.0,58.3,29.84,NNW,337,18.0,29.0,38,0.00,,CLR,0.00,VWS V14.01,2013-08-29 17:44:00,
2013-08-29 11:49:00,87.0,55.3,29.84,North,360,21.0,29.0,34,0.00,,CLR,0.00,VWS V14.01,2013-08-29 17:49:00,
2013-08-29 11:54:00,87.0,58.3,29.83,North,360,15.0,29.0,38,0.00,,CLR,0.00,VWS V14.01,2013-08-29 17:54:00,
2013-08-29 11:59:00,87.0,56.1,29.83,North,360,20.0,29.0,35,0.00,,CLR,0.00,VWS V14.01,2013-08-29 17:59:00,
2013-08-29 12:04:00,87.0,56.1,29.84,North,360,25.0,26.0,35,0.00,,CLR,0.00,VWS V14.01,2013-08-29 18:04:00,
2013-08-29 12:09:00,87.0,55.3,29.84,North,360,22.0,28.0,34,0.00,,CLR,0.00,VWS V14.01,2013-08-29 18:09:00,
2013-08-29 12:14:00,88.0,54.5,29.84,North,360,17.0,28.0,32,0.00,,CLR,0.00,VWS V14.01,2013-08-29 18:14:00,
2013-08-29 12:19:00,87.0,54.5,29.84,North,360,19.0,28.0,33,0.00,,CLR,0.00,VWS V14.01,2013-08-29 18:19:00,
2013-08-29 12:24:00,87.0,54.5,29.82,North,360,22.0,28.0,33,0.00,,CLR,0.00,VWS V14.01,2013-08-29 18:24:00,
2013-08-29 12:29:00,88.0,54.5,29.82,North,360,19.0,28.0,32,0.00,,CLR,0.00,VWS V14.01,2013-08-29 18:29:00,
2013-08-29 12:34:00,88.0,53.6,29.83,North,360,25.0,29.0,31,0.00,,CLR,0.00,VWS V14.01,2013-08-29 18:34:00,
2013-08-29 12:40:00,88.0,55.3,29.83,North,360,22.0,29.0,33,0.00,,CLR,0.00,VWS V14.01,2013-08-29 18:40:00,
2013-08-29 12:45:00,88.0,56.9,29.82,North,360,17.0,31.0,35,0.00,,CLR,0.00,VWS V14.01,2013-08-29 18:45:00,
2013-08-29 12:50:00,87.0,54.5,29.82,North,360,19.0,31.0,33,0.00,,CLR,0.00,VWS V14.01,2013-08-29 18:50:00,
2013-08-29 12:55:00,87.0,54.5,29.82,North,360,18.0,31.0,33,0.00,,CLR,0.00,VWS V14.01,2013-08-29 18:55:00,
2013-08-29 13:00:00,89.0,54.5,29.82,NNW,337,23.0,26.0,31,0.00,,CLR,0.00,VWS V14.01,2013-08-29 19:00:00,
2013-08-29 13:05:00,88.0,54.5,29.81,North,360,20.0,31.0,32,0.00,,CLR,0.00,VWS V14.01,2013-08-29 19:05:00,
2013-08-29 13:10:00,86.0,51.9,29.81,North,360,25.0,31.0,31,0.00,,CLR,0.00,VWS V14.01,2013-08-29 19:10:00,
2013-08-29 13:15:00,85.0,53.5,29.84,North,360,17.0,31.0,34,0.00,,CLR,0.00,VWS V14.01,2013-08-29 19:15:00,
2013-08-29 13:20:00,85.0,52.7,29.84,North,360,16.0,31.0,33,0.00,,CLR,0.00,VWS V14.01,2013-08-29 19:20:00,
2013-08-29 13:25:00,85.0,54.3,29.84,North,360,19.0,31.0,35,0.00,,CLR,0.00,VWS V14.01,2013-08-29 19:25:00,
2013-08-29 13:30:00,85.0,54.3,29.84,North,360,20.0,25.0,35,0.00,,CLR,0.00,VWS V14.01,2013-08-29 19:30:00,
2013-08-29 13:35:00,86.0,53.6,29.84,North,360,17.0,26.0,33,0.00,,CLR,0.00,VWS V14.01,2013-08-29 19:35:00,
2013-08-29 13:40:00,87.0,54.5,29.84,North,360,14.0,26.0,33,0.00,,CLR,0.00,VWS V14.01,2013-08-29 19:40:00,
2013-08-29 13:45:00,87.0,54.5,29.83,North,360,18.0,27.0,33,0.00,,CLR,0.00,VWS V14.01,2013-08-29 19:45:00,
2013-08-29 13:50:00,86.0,55.2,29.83,North,360,21.0,27.0,35,0.00,,CLR,0.00,VWS V14.01,2013-08-29 19:50:00,
2013-08-29 13:55:00,85.0,54.3,29.84,North,360,14.0,27.0,35,0.00,,CLR,0.00,VWS V14.01,2013-08-29 19:55:00,
2013-08-29 14:00:00,85.0,55.1,29.84,North,360,13.0,18.0,36,0.00,,CLR,0.00,VWS V14.01,2013-08-29 20:00:00,
2013-08-29 14:05:00,85.0,54.3,29.85,North,360,17.0,23.0,35,0.00,,CLR,0.00,VWS V14.01,2013-08-29 20:05:00,
2013-08-29 14:10:00,85.0,54.3,29.85,North,360,14.0,23.0,35,0.00,,CLR,0.00,VWS V14.01,2013-08-29 20:10:00,
2013-08-29 14:15:00,85.0,53.5,29.85,North,360,15.0,23.0,34,0.00,,CLR,0.00,VWS V14.01,2013-08-29 20:15:00,
2013-08-29 14:20:00,85.0,53.5,29.85,North,360,13.0,23.0,34,0.00,,CLR,0.00,VWS V14.01,2013-08-29 20:20:00,
2013-08-29 14:25:00,85.0,54.3,29.85,North,360,15.0,23.0,35,0.00,,CLR,0.00,VWS V14.01,2013-08-29 20:25:00,
2013-08-29 14:31:00,86.0,55.2,29.85,North,360,13.0,17.0,35,0.00,,CLR,0.00,VWS V14.01,2013-08-29 20:31:00,
2013-08-29 14:36:00,88.0,53.6,29.83,North,360,16.0,22.0,31,0.00,,CLR,0.00,VWS V14.01,2013-08-29 20:36:00,
2013-08-29 14:41:00,89.0,54.5,29.83,North,360,18.0,25.0,31,0.00,,CLR,0.00,VWS V14.01,2013-08-29 20:41:00,
2013-08-29 14:46:00,90.0,53.5,29.82,North,360,21.0,25.0,29,0.00,,CLR,0.00,VWS V14.01,2013-08-29 20:46:00,
2013-08-29 14:51:00,87.0,52.7,29.82,NNW,337,16.0,27.0,31,0.00,,CLR,0.00,VWS V14.01,2013-08-29 20:51:00,
2013-08-29 14:56:00,86.0,53.6,29.84,North,360,20.0,27.0,33,0.00,,CLR,0.00,VWS V14.01,2013-08-29 20:56:00,
2013-08-29 15:01:00,86.0,53.6,29.84,NNW,337,17.0,20.0,33,0.00,,CLR,0.00,VWS V14.01,2013-08-29 21:01:00,
2013-08-29 15:06:00,86.0,53.6,29.84,North,360,12.0,23.0,33,0.00,,CLR,0.00,VWS V14.01,2013-08-29 21:06:00,
2013-08-29 15:11:00,86.0,54.4,29.84,North,360,11.0,23.0,34,0.00,,CLR,0.00,VWS V14.01,2013-08-29 21:11:00,
2013-08-29 15:16:00,86.0,53.6,29.84,North,360,10.0,23.0,33,0.00,,CLR,0.00,VWS V14.01,2013-08-29 21:16:00,
2013-08-29 15:21:00,87.0,54.5,29.84,North,360,13.0,23.0,33,0.00,,CLR,0.00,VWS V14.01,2013-08-29 21:21:00,
2013-08-29 15:26:00,86.0,54.4,29.84,North,360,13.0,23.0,34,0.00,,CLR,0.00,VWS V14.01,2013-08-29 21:26:00,
2013-08-29 15:31:00,86.0,53.6,29.84,North,360,12.0,19.0,33,0.00,,CLR,0.00,VWS V14.01,2013-08-29 21:31:00,
2013-08-29 15:36:00,86.0,53.6,29.83,North,360,13.0,19.0,33,0.00,,CLR,0.00,VWS V14.01,2013-08-29 21:36:00,
2013-08-29 15:41:00,86.0,54.4,29.83,North,360,10.0,19.0,34,0.00,,CLR,0.00,VWS V14.01,2013-08-29 21:41:00,
2013-08-29 15:46:00,87.0,54.5,29.84,NNW,337,16.0,23.0,33,0.00,,CLR,0.00,VWS V14.01,2013-08-29 21:46:00,
2013-08-29 15:51:00,90.0,55.3,29.81,NW,315,13.0,23.0,31,0.00,,CLR,0.00,VWS V14.01,2013-08-29 21:51:00,
2013-08-29 15:56:00,90.0,55.3,29.81,NNW,337,22.0,25.0,31,0.00,,CLR,0.00,VWS V14.01,2013-08-29 21:56:00,
2013-08-29 16:01:00,90.0,54.4,29.81,North,360,18.0,20.0,30,0.00,,CLR,0.00,VWS V14.01,2013-08-29 22:01:00,
2013-08-29 16:06:00,90.0,55.3,29.81,North,360,15.0,23.0,31,0.00,,CLR,0.00,VWS V14.01,2013-08-29 22:06:00,
2013-08-29 16:11:00,90.0,54.4,29.81,NNW,337,15.0,23.0,30,0.00,,CLR,0.00,VWS V14.01,2013-08-29 22:11:00,
2013-08-29 16:16:00,89.0,53.6,29.81,North,360,17.0,25.0,30,0.00,,CLR,0.00,VWS V14.01,2013-08-29 22:16:00,
2013-08-29 16:22:00,90.0,53.5,29.81,North,360,22.0,25.0,29,0.00,,CLR,0.00,VWS V14.01,2013-08-29 22:22:00,
2013-08-29 16:27:00,90.0,53.5,29.81,North,360,20.0,25.0,29,0.00,,CLR,0.00,VWS V14.01,2013-08-29 22:27:00,
2013-08-29 16:32:00,90.0,54.4,29.81,North,360,15.0,22.0,30,0.00,,CLR,0.00,VWS V14.01,2013-08-29 22:32:00,
2013-08-29 16:37:00,90.0,53.5,29.81,North,360,19.0,22.0,29,0.00,,CLR,0.00,VWS V14.01,2013-08-29 22:37:00,
2013-08-29 16:42:00,91.0,53.4,29.80,North,360,17.0,22.0,28,0.00,,CLR,0.00,VWS V14.01,2013-08-29 22:42:00,
2013-08-29 16:47:00,90.0,53.5,29.80,NNW,337,13.0,22.0,29,0.00,,CLR,0.00,VWS V14.01,2013-08-29 22:47:00,
2013-08-29 16:52:00,90.0,52.5,29.81,North,360,15.0,22.0,28,0.00,,CLR,0.00,VWS V14.01,2013-08-29 22:52:00,
2013-08-29 16:57:00,90.0,53.5,29.81,NNE,22,19.0,22.0,29,0.00,,CLR,0.00,VWS V14.01,2013-08-29 22:57:00,
2013-08-29 17:02:00,90.0,53.5,29.82,NNE,22,14.0,19.0,29,0.00,,CLR,0.00,VWS V14.01,2013-08-29 23:02:00,
2013-08-29 17:07:00,90.0,53.5,29.82,North,360,21.0,22.0,29,0.00,,CLR,0.00,VWS V14.01,2013-08-29 23:07:00,
2013-08-29 17:12:00,89.0,52.7,29.82,North,360,13.0,23.0,29,0.00,,CLR,0.00,VWS V14.01,2013-08-29 23:12:00,
2013-08-29 17:17:00,89.0,52.7,29.82,North,360,20.0,23.0,29,0.00,,CLR,0.00,VWS V14.01,2013-08-29 23:17:00,
2013-08-29 17:22:00,89.0,52.7,29.81,North,360,22.0,23.0,29,0.00,,CLR,0.00,VWS V14.01,2013-08-29 23:22:00,
2013-08-29 17:27:00,89.0,53.6,29.81,North,360,15.0,23.0,30,0.00,,CLR,0.00,VWS V14.01,2013-08-29 23:27:00,
2013-08-29 17:32:00,89.0,52.7,29.82,North,360,16.0,20.0,29,0.00,,CLR,0.00,VWS V14.01,2013-08-29 23:32:00,
2013-08-29 17:37:00,89.0,53.6,29.82,North,360,12.0,21.0,30,0.00,,CLR,0.00,VWS V14.01,2013-08-29 23:37:00,
2013-08-29 17:42:00,89.0,52.7,29.82,North,360,16.0,21.0,29,0.00,,CLR,0.00,VWS V14.01,2013-08-29 23:42:00,
2013-08-29 17:47:00,89.0,53.6,29.82,North,360,12.0,21.0,30,0.00,,CLR,0.00,VWS V14.01,2013-08-29 23:47:00,
2013-08-29 17:52:00,89.0,53.6,29.83,North,360,15.0,21.0,30,0.00,,CLR,0.00,VWS V14.01,2013-08-29 23:52:00,
2013-08-29 17:57:00,88.0,53.6,29.83,NNW,337,17.0,21.0,31,0.00,,CLR,0.00,VWS V14.01,2013-08-29 23:57:00,
2013-08-29 18:02:00,88.0,51.8,29.83,North,360,13.0,16.0,29,0.00,,CLR,0.00,VWS V14.01,2013-08-30 00:02:00,
2013-08-29 18:07:00,88.0,53.6,29.83,North,360,15.0,22.0,31,0.00,,CLR,0.00,VWS V14.01,2013-08-30 00:07:00,
2013-08-29 18:12:00,86.0,51.9,29.84,North,360,16.0,22.0,31,0.00,,CLR,0.00,VWS V14.01,2013-08-30 00:12:00,
2013-08-29 18:18:00,85.0,51.9,29.84,North,360,13.0,22.0,32,0.00,,CLR,0.00,VWS V14.01,2013-08-30 00:18:00,
2013-08-29 18:23:00,85.0,52.7,29.86,North,360,10.0,22.0,33,0.00,,CLR,0.00,VWS V14.01,2013-08-30 00:23:00,
2013-08-29 18:28:00,84.0,52.6,29.86,NNW,337,9.0,22.0,34,0.00,,CLR,0.00,VWS V14.01,2013-08-30 00:28:00,
2013-08-29 18:33:00,84.0,53.4,29.87,NNW,337,7.0,9.0,35,0.00,,CLR,0.00,VWS V14.01,2013-08-30 00:33:00,
2013-08-29 18:38:00,83.0,52.6,29.87,NNW,337,8.0,9.0,35,0.00,,CLR,0.00,VWS V14.01,2013-08-30 00:38:00,
2013-08-29 18:43:00,83.0,54.1,29.88,NNW,337,7.0,9.0,37,0.00,,CLR,0.00,VWS V14.01,2013-08-30 00:43:00,
2013-08-29 18:48:00,83.0,53.3,29.88,North,360,6.0,9.0,36,0.00,,CLR,0.00,VWS V14.01,2013-08-30 00:48:00,
2013-08-29 18:53:00,83.0,53.3,29.88,NNW,337,7.0,9.0,36,0.00,,CLR,0.00,VWS V14.01,2013-08-30 00:53:00,
2013-08-29 18:58:00,83.0,54.1,29.88,North,360,7.0,9.0,37,0.00,,CLR,0.00,VWS V14.01,2013-08-30 00:58:00,
2013-08-29 19:03:00,83.0,54.1,29.88,North,360,7.0,8.0,37,0.00,,CLR,0.00,VWS V14.01,2013-08-30 01:03:00,
2013-08-29 19:08:00,83.0,54.8,29.88,North,360,7.0,8.0,38,0.00,,CLR,0.00,VWS V14.01,2013-08-30 01:08:00,
2013-08-29 19:13:00,82.0,54.6,29.89,North,360,6.0,8.0,39,0.00,,CLR,0.00,VWS V14.01,2013-08-30 01:13:00,
2013-08-29 19:18:00,82.0,55.3,29.89,North,360,5.0,8.0,40,0.00,,CLR,0.00,VWS V14.01,2013-08-30 01:18:00,
2013-08-29 19:32:00,81.0,54.4,29.89,NNW,337,7.0,7.0,40,0.00,,CLR,0.00,VWS V14.01,2013-08-30 01:32:00,
2013-08-29 19:37:00,79.0,55.2,29.89,NW,315,6.0,7.0,44,0.00,,CLR,0.00,VWS V14.01,2013-08-30 01:37:00,
2013-08-29 19:42:00,78.0,55.6,29.92,NW,315,4.0,7.0,46,0.00,,CLR,0.00,VWS V14.01,2013-08-30 01:42:00,
2013-08-29 19:47:00,76.0,54.9,29.92,NW,315,3.0,7.0,48,0.00,,CLR,0.00,VWS V14.01,2013-08-30 01:47:00,
2013-08-29 19:52:00,76.0,53.8,29.93,NW,315,2.0,7.0,46,0.00,,CLR,0.00,VWS V14.01,2013-08-30 01:52:00,
2013-08-29 19:57:00,76.0,54.3,29.93,NW,315,0.0,7.0,47,0.00,,CLR,0.00,VWS V14.01,2013-08-30 01:57:00,
2013-08-29 20:02:00,76.0,54.9,29.94,NW,315,3.0,5.0,48,0.00,,CLR,0.00,VWS V14.01,2013-08-30 02:02:00,
2013-08-29 20:07:00,75.0,54.6,29.94,NW,315,6.0,6.0,49,0.00,,CLR,0.00,VWS V14.01,2013-08-30 02:07:00,
2013-08-29 20:12:00,75.0,55.1,29.95,WNW,292,2.0,6.0,50,0.00,,CLR,0.00,VWS V14.01,2013-08-30 02:12:00,
2013-08-29 20:17:00,74.0,55.8,29.95,NW,315,4.0,6.0,53,0.00,,CLR,0.00,VWS V14.01,2013-08-30 02:17:00,
2013-08-29 20:22:00,73.0,55.4,29.96,WNW,292,4.0,6.0,54,0.00,,CLR,0.00,VWS V14.01,2013-08-30 02:22:00,
2013-08-29 20:27:00,72.0,56.0,29.96,NW,315,3.0,6.0,57,0.00,,CLR,0.00,VWS V14.01,2013-08-30 02:27:00,
2013-08-29 20:32:00,72.0,55.5,29.97,WNW,292,3.0,7.0,56,0.00,,CLR,0.00,VWS V14.01,2013-08-30 02:32:00,
2013-08-29 20:37:00,74.0,55.8,29.97,WNW,292,6.0,7.0,53,0.00,,CLR,0.00,VWS V14.01,2013-08-30 02:37:00,
2013-08-29 20:42:00,75.0,55.1,29.95,WNW,292,6.0,7.0,50,0.00,,CLR,0.00,VWS V14.01,2013-08-30 02:42:00,
2013-08-29 20:47:00,75.0,54.6,29.95,WNW,292,6.0,7.0,49,0.00,,CLR,0.00,VWS V14.01,2013-08-30 02:47:00,
2013-08-29 20:52:00,76.0,54.9,29.95,West,270,5.0,8.0,48,0.00,,CLR,0.00,VWS V14.01,2013-08-30 02:52:00,
2013-08-29 20:57:00,75.0,55.1,29.95,WNW,292,4.0,8.0,50,0.00,,CLR,0.00,VWS V14.01,2013-08-30 02:57:00,
2013-08-29 21:02:00,74.0,54.7,29.96,West,270,5.0,6.0,51,0.00,,CLR,0.00,VWS V14.01,2013-08-30 03:02:00,
2013-08-29 21:07:00,74.0,54.7,29.96,West,270,5.0,7.0,51,0.00,,CLR,0.00,VWS V14.01,2013-08-30 03:07:00,
2013-08-29 21:12:00,74.0,55.3,29.97,West,270,5.0,7.0,52,0.00,,CLR,0.00,VWS V14.01,2013-08-30 03:12:00,
2013-08-29 21:17:00,74.0,55.8,29.97,West,270,7.0,7.0,53,0.00,,CLR,0.00,VWS V14.01,2013-08-30 03:17:00,
2013-08-29 21:22:00,74.0,55.3,29.97,WNW,292,6.0,7.0,52,0.00,,CLR,0.00,VWS V14.01,2013-08-30 03:22:00,
2013-08-29 21:27:00,73.0,54.9,29.97,WNW,292,0.0,7.0,53,0.00,,CLR,0.00,VWS V14.01,2013-08-30 03:27:00,
2013-08-29 21:33:00,74.0,55.3,29.97,WNW,292,1.0,6.0,52,0.00,,CLR,0.00,VWS V14.01,2013-08-30 03:33:00,
2013-08-29 21:38:00,74.0,55.3,29.97,WNW,292,3.0,6.0,52,0.00,,CLR,0.00,VWS V14.01,2013-08-30 03:38:00,
2013-08-29 21:43:00,73.0,55.4,29.97,NNW,337,4.0,6.0,54,0.00,,CLR,0.00,VWS V14.01,2013-08-30 03:43:00,
2013-08-29 21:48:00,72.0,55.5,29.97,WNW,292,6.0,6.0,56,0.00,,CLR,0.00,VWS V14.01,2013-08-30 03:48:00,
2013-08-29 21:53:00,71.0,55.5,29.98,WNW,292,5.0,6.0,58,0.00,,CLR,0.00,VWS V14.01,2013-08-30 03:53:00,
2013-08-29 21:58:00,70.0,55.5,29.98,WNW,292,3.0,7.0,60,0.00,,CLR,0.00,VWS V14.01,2013-08-30 03:58:00,
2013-08-29 22:01:00,70.0,55.5,29.98,WNW,292,7.0,7.0,60,0.00,,CLR,0.00,VWS V14.01,2013-08-30 04:01:00,
2013-08-29 22:02:00,70.0,55.5,29.99,NW,315,4.0,7.0,60,0.00,,CLR,0.00,VWS V14.01,2013-08-30 04:02:00,
2013-08-29 22:05:00,70.0,56.0,29.99,NW,315,5.0,7.0,61,0.00,,CLR,0.00,VWS V14.01,2013-08-30 04:05:00,
2013-08-29 22:10:00,69.0,55.9,29.99,NW,315,4.0,7.0,63,0.00,,CLR,0.00,VWS V14.01,2013-08-30 04:10:00,
2013-08-29 22:15:00,70.0,56.4,29.99,NW,315,1.0,7.0,62,0.00,,CLR,0.00,VWS V14.01,2013-08-30 04:15:00,
2013-08-29 22:20:00,70.0,56.0,29.99,NW,315,2.0,7.0,61,0.00,,CLR,0.00,VWS V14.01,2013-08-30 04:20:00,
2013-08-29 22:25:00,71.0,56.0,29.99,NW,315,3.0,7.0,59,0.00,,CLR,0.00,VWS V14.01,2013-08-30 04:25:00,
2013-08-29 22:30:00,72.0,55.5,29.99,WNW,292,4.0,6.0,56,0.00,,CLR,0.00,VWS V14.01,2013-08-30 04:30:00,
2013-08-29 22:35:00,73.0,55.9,29.98,NW,315,6.0,7.0,55,0.00,,CLR,0.00,VWS V14.01,2013-08-30 04:35:00,
2013-08-29 22:40:00,72.0,55.0,29.98,WNW,292,5.0,7.0,55,0.00,,CLR,0.00,VWS V14.01,2013-08-30 04:40:00,
2013-08-29 22:45:00,72.0,55.5,29.97,WNW,292,3.0,7.0,56,0.00,,CLR,0.00,VWS V14.01,2013-08-30 04:45:00,
2013-08-29 22:50:00,71.0,56.4,29.97,NW,315,3.0,7.0,60,0.00,,CLR,0.00,VWS V14.01,2013-08-30 04:50:00,
2013-08-29 22:55:00,70.0,56.0,29.99,NW,315,0.0,7.0,61,0.00,,CLR,0.00,VWS V14.01,2013-08-30 04:55:00,
2013-08-29 23:00:00,70.0,55.5,29.99,NW,315,5.0,6.0,60,0.00,,CLR,0.00,VWS V14.01,2013-08-30 05:00:00,
2013-08-29 23:06:00,69.0,55.9,29.99,NW,315,5.0,6.0,63,0.00,,CLR,0.00,VWS V14.01,2013-08-30 05:06:00,
2013-08-29 23:11:00,69.0,55.9,29.99,NW,315,2.0,6.0,63,0.00,,CLR,0.00,VWS V14.01,2013-08-30 05:11:00,
2013-08-29 23:16:00,69.0,56.3,29.99,NW,315,3.0,6.0,64,0.00,,CLR,0.00,VWS V14.01,2013-08-30 05:16:00,
2013-08-29 23:21:00,69.0,55.9,29.99,NW,315,4.0,6.0,63,0.00,,CLR,0.00,VWS V14.01,2013-08-30 05:21:00,
2013-08-29 23:26:00,69.0,56.3,29.99,NW,315,6.0,6.0,64,0.00,,CLR,0.00,VWS V14.01,2013-08-30 05:26:00,
2013-08-29 23:31:00,68.0,55.8,29.99,NW,315,2.0,6.0,65,0.00,,CLR,0.00,VWS V14.01,2013-08-30 05:31:00,
2013-08-29 23:36:00,69.0,56.3,30.00,WNW,292,0.0,6.0,64,0.00,,CLR,0.00,VWS V14.01,2013-08-30 05:36:00,
2013-08-29 23:41:00,69.0,55.5,30.00,West,270,6.0,6.0,62,0.00,,CLR,0.00,VWS V14.01,2013-08-30 05:41:00,
2013-08-29 23:46:00,69.0,55.9,29.99,WNW,292,5.0,8.0,63,0.00,,CLR,0.00,VWS V14.01,2013-08-30 05:46:00,
2013-08-29 23:51:00,68.0,56.2,29.99,WNW,292,5.0,8.0,66,0.00,,CLR,0.00,VWS V14.01,2013-08-30 05:51:00,
2013-08-29 23:56:00,67.0,55.7,30.01,WNW,292,2.0,8.0,67,0.00,,CLR,0.00,VWS V14.01,2013-08-30 05:56:00,